Time;durP1;ratioP1;P1;durP2;ratioP2;P2;SDS_P1;SDS_P2;PMS_P1;PMS_P2;Temp;Humidity;BMP_temperature;BMP_pressure;BME280_temperature;BME280_humidity;BME280_pressure;Samples;Min_cycle;Max_cycle;Signal;HPM_P1;HPM_P2
2021/07/25 00:00:55;;;;;;;34.13;31.00;;;;;;;19.45;89.00;100716.25;5041048;28;20458;-73
2021/07/25 00:03:20;;;;;;;18.70;16.87;;;;;;;19.43;88.65;100708.34;5037079;28;20430;-73
2021/07/25 00:05:45;;;;;;;17.23;15.67;;;;;;;19.45;88.29;100697.22;5032294;28;20558;-73
2021/07/25 00:08:14;;;;;;;21.60;19.63;;;;;;;19.51;88.40;100704.34;5035094;28;20841;-73
2021/07/25 00:10:48;;;;;;;33.73;30.70;;;;;;;19.50;88.54;100710.88;5041333;28;20545;-73
2021/07/25 00:13:16;;;;;;;13.70;12.37;;;;;;;19.42;88.81;100706.72;5039557;28;21001;-73
2021/07/25 00:15:42;;;;;;;19.00;17.13;;;;;;;19.20;88.99;100657.88;5039133;28;20430;-73
2021/07/25 00:18:07;;;;;;;17.90;16.27;;;;;;;19.41;88.91;100698.81;5036623;28;20477;-73
2021/07/25 00:20:33;;;;;;;25.93;23.53;;;;;;;19.51;88.43;100689.91;5040234;28;20443;-73
2021/07/25 00:22:58;;;;;;;17.77;16.00;;;;;;;19.32;89.42;100678.63;5040648;28;20188;-73
2021/07/25 00:25:24;;;;;;;27.10;24.30;;;;;;;18.88;87.82;100578.25;5037560;28;20203;-73
2021/07/25 00:27:52;;;;;;;19.70;17.73;;;;;;;19.45;88.86;100674.66;5039512;28;20188;-73
2021/07/25 00:30:19;;;;;;;23.67;21.47;;;;;;;19.39;88.06;100650.13;5040079;28;20431;-73
2021/07/25 00:32:45;;;;;;;17.63;16.00;;;;;;;19.60;87.58;100669.28;5041373;28;20558;-73
2021/07/25 00:35:11;;;;;;;24.07;21.60;;;;;;;19.34;88.40;100641.94;5036207;28;20469;-73
2021/07/25 00:37:37;;;;;;;20.67;18.63;;;;;;;19.46;88.68;100658.03;5039806;28;20498;-73
2021/07/25 00:40:03;;;;;;;16.23;14.63;;;;;;;19.23;88.77;100634.78;5043732;28;20624;-73
2021/07/25 00:42:38;;;;;;;14.93;13.40;;;;;;;19.18;88.93;100613.00;5036839;28;20565;-73
2021/07/25 00:45:05;;;;;;;19.23;17.47;;;;;;;19.45;88.19;100650.16;5038424;28;20468;-73
2021/07/25 00:47:30;;;;;;;36.53;33.23;;;;;;;19.53;87.87;100666.81;5041394;28;20445;-73
2021/07/25 00:49:56;;;;;;;31.90;28.93;;;;;;;19.35;88.09;100630.00;5039389;28;20453;-73
2021/07/25 00:52:21;;;;;;;33.27;30.37;;;;;;;19.34;88.49;100636.50;5040961;28;20207;-73
2021/07/25 00:54:46;;;;;;;14.90;13.40;;;;;;;18.96;89.12;100584.03;5039116;28;20221;-74
2021/07/25 00:57:12;;;;;;;27.20;24.70;;;;;;;18.83;88.99;100567.34;5040685;28;20180;-74
2021/07/25 00:59:37;;;;;;;24.10;22.07;;;;;;;19.41;88.88;100637.09;5037663;28;20179;-73
2021/07/25 01:02:03;;;;;;;21.77;19.87;;;;;;;19.46;88.54;100643.63;5038352;28;20264;-73
2021/07/25 01:04:58;;;;;;;20.77;18.70;;;;;;;19.41;89.13;100634.38;5042589;28;20555;-73
2021/07/25 01:07:32;;;;;;;19.83;18.03;;;;;;;19.52;88.36;100634.41;5039468;28;20596;-73
2021/07/25 01:10:19;;;;;;;27.53;25.17;;;;;;;19.41;88.91;100634.38;5041216;28;21492;-73
2021/07/25 01:12:51;;;;;;;30.80;27.80;;;;;;;19.39;88.86;100630.28;5040878;28;20466;-73
2021/07/25 01:15:22;;;;;;;37.20;33.70;;;;;;;19.39;88.55;100619.41;5038883;28;20453;-73
2021/07/25 01:17:47;;;;;;;14.97;13.43;;;;;;;19.12;88.88;100586.84;5037191;28;20477;-74
2021/07/25 01:20:13;;;;;;;34.23;31.07;;;;;;;18.94;89.14;100574.50;5039963;28;20950;-73
2021/07/25 01:22:42;;;;;;;28.70;26.03;;;;;;;19.25;89.16;100610.88;5036905;28;20216;-73
2021/07/25 01:25:10;;;;;;;24.03;21.73;;;;;;;19.31;88.72;100604.38;5036003;28;20533;-73
2021/07/25 01:27:47;;;;;;;23.27;21.17;;;;;;;19.39;88.33;100616.69;5038956;28;20442;-73
2021/07/25 01:30:16;;;;;;;31.67;28.77;;;;;;;19.03;88.97;100570.22;5036224;28;20441;-74
2021/07/25 01:32:42;;;;;;;24.77;22.47;;;;;;;19.23;89.27;100606.78;5033651;28;20564;-73
2021/07/25 01:35:10;;;;;;;25.90;23.67;;;;;;;19.32;88.69;100600.56;5038199;28;20446;-74
2021/07/25 01:37:37;;;;;;;26.73;24.17;;;;;;;19.43;88.25;100615.06;5039490;28;20570;-74
2021/07/25 01:40:17;;;;;;;24.07;21.83;;;;;;;19.23;88.97;100604.06;5034426;28;20446;-73
2021/07/25 01:42:43;;;;;;;21.80;19.60;;;;;;;19.09;89.06;100580.06;5035722;28;20514;-74
2021/07/25 01:45:09;;;;;;;27.30;24.77;;;;;;;19.16;88.95;100588.78;5035926;28;20438;-74
2021/07/25 01:47:35;;;;;;;31.17;28.10;;;;;;;19.41;88.18;100609.06;5040645;28;20240;-74
2021/07/25 01:50:01;;;;;;;35.80;32.57;;;;;;;19.43;88.33;100606.91;5039352;28;20442;-73
2021/07/25 01:52:26;;;;;;;41.97;38.17;;;;;;;19.31;89.03;100606.28;5033084;28;20951;-73
2021/07/25 01:54:52;;;;;;;73.93;67.33;;;;;;;18.72;89.80;100536.56;5032779;28;20541;-73
2021/07/25 01:57:17;;;;;;;44.63;40.30;;;;;;;19.03;89.08;100561.25;5031836;28;20191;-73
2021/07/25 01:59:43;;;;;;;19.03;17.13;;;;;;;18.93;89.43;100545.69;5032934;28;20188;-73
2021/07/25 02:02:08;;;;;;;38.67;35.10;;;;;;;18.96;89.82;100570.44;5031565;28;20228;-73
2021/07/25 02:04:33;;;;;;;37.90;31.77;;;;;;;18.78;88.85;100502.94;5034239;28;20188;-73
2021/07/25 02:06:59;;;;;;;23.77;21.50;;;;;;;19.18;89.92;100602.94;5032140;28;20188;-73
2021/07/25 02:09:25;;;;;;;33.97;30.90;;;;;;;18.83;89.49;100532.84;5034557;28;20188;-73
2021/07/25 02:11:50;;;;;;;32.53;29.17;;;;;;;19.20;89.84;100600.78;5030262;28;20212;-73
2021/07/25 02:14:16;;;;;;;28.83;26.37;;;;;;;18.91;90.26;100562.25;5033871;28;20189;-73
2021/07/25 02:16:41;;;;;;;30.47;27.70;;;;;;;18.79;90.09;100550.75;5029890;28;20240;-73
2021/07/25 02:19:06;;;;;;;35.17;31.97;;;;;;;19.27;89.72;100588.88;5031446;28;20282;-73
2021/07/25 02:21:32;;;;;;;24.60;22.10;;;;;;;19.04;89.40;100558.28;5032096;28;20246;-73
2021/07/25 02:23:57;;;;;;;54.40;49.87;;;;;;;19.22;89.57;100576.06;5032919;28;20210;-73
2021/07/25 02:26:22;;;;;;;39.70;36.23;;;;;;;19.21;90.29;100588.03;5034529;28;20184;-73
2021/07/25 02:28:48;;;;;;;41.13;37.53;;;;;;;19.24;89.90;100584.78;5035889;28;20199;-73
2021/07/25 02:31:13;;;;;;;36.73;33.17;;;;;;;18.91;89.34;100516.03;5029389;28;20219;-73
2021/07/25 02:33:38;;;;;;;33.73;28.80;;;;;;;18.97;89.72;100534.03;5032570;28;20195;-73
2021/07/25 02:36:04;;;;;;;30.10;27.10;;;;;;;19.18;90.61;100575.75;5037816;28;20279;-73
2021/07/25 02:38:29;;;;;;;29.97;27.30;;;;;;;19.31;89.77;100582.63;5035775;28;20742;-73
2021/07/25 02:40:54;;;;;;;32.47;29.60;;;;;;;19.23;89.63;100555.94;5038494;28;20227;-72
2021/07/25 02:43:20;;;;;;;30.63;27.83;;;;;;;19.35;89.34;100572.03;5039215;28;20707;-73
2021/07/25 02:45:45;;;;;;;20.80;18.87;;;;;;;19.18;89.95;100558.63;5036070;28;20189;-73
2021/07/25 02:48:10;;;;;;;43.50;39.53;;;;;;;19.20;90.57;100573.56;5034671;28;20186;-73
2021/07/25 02:50:36;;;;;;;29.33;26.33;;;;;;;19.25;89.99;100570.09;5034264;28;20194;-73
2021/07/25 02:53:01;;;;;;;46.17;42.20;;;;;;;19.23;89.39;100564.09;5037742;28;20192;-73
2021/07/25 02:55:27;;;;;;;34.37;31.10;;;;;;;19.15;90.39;100570.84;5038044;28;20680;-73
2021/07/25 02:57:52;;;;;;;23.30;21.03;;;;;;;19.22;90.07;100570.63;5038856;28;20219;-72
2021/07/25 03:00:18;;;;;;;37.40;33.93;;;;;;;19.24;90.13;100573.91;5039199;28;20735;-73
2021/07/25 03:02:43;;;;;;;22.27;20.13;;;;;;;19.03;90.35;100553.09;5034963;28;20297;-73
2021/07/25 03:05:09;;;;;;;30.83;27.93;;;;;;;19.20;90.09;100579.03;5037012;28;20191;-73
2021/07/25 03:07:34;;;;;;;43.83;39.47;;;;;;;19.24;89.57;100565.75;5033901;28;20614;-73
2021/07/25 03:10:00;;;;;;;22.50;20.20;;;;;;;19.23;90.15;100574.97;5042337;28;20203;-73
2021/07/25 03:12:25;;;;;;;46.20;41.70;;;;;;;19.07;90.53;100570.53;5037403;28;20208;-73
2021/07/25 03:14:50;;;;;;;46.93;42.57;;;;;;;18.97;91.11;100547.59;5034871;28;20215;-72
2021/07/25 03:17:16;;;;;;;26.57;23.83;;;;;;;19.09;90.37;100563.75;5048747;28;20679;-73
2021/07/25 03:19:43;;;;;;;46.90;42.60;;;;;;;19.14;90.96;100571.91;5038947;28;20529;-73
2021/07/25 03:22:10;;;;;;;37.00;32.63;;;;;;;19.08;90.46;100562.09;5037755;28;20625;-72
2021/07/25 03:24:37;;;;;;;18.80;16.70;;;;;;;18.95;90.28;100524.53;5038336;28;20438;-73
2021/07/25 03:27:03;;;;;;;19.00;17.20;;;;;;;19.15;90.63;100561.84;5034529;28;20835;-73
2021/07/25 03:29:28;;;;;;;18.50;16.77;;;;;;;19.08;90.41;100543.06;5034493;28;20438;-73
2021/07/25 03:31:54;;;;;;;20.83;18.93;;;;;;;19.06;90.72;100560.72;5037314;28;20215;-73
2021/07/25 03:34:20;;;;;;;24.03;21.53;;;;;;;19.14;90.73;100566.47;5045629;28;20184;-73
2021/07/25 03:36:45;;;;;;;21.80;19.53;;;;;;;19.02;90.60;100551.47;5036452;28;20253;-73
2021/07/25 03:39:17;;;;;;;24.20;21.40;;;;;;;19.00;91.61;100573.44;5033792;28;20697;-72
2021/07/25 03:41:42;;;;;;;33.50;30.37;;;;;;;18.91;91.29;100542.41;5035404;28;20294;-73
2021/07/25 03:44:08;;;;;;;27.17;24.50;;;;;;;19.10;90.77;100568.09;5033228;28;20533;-73
2021/07/25 03:46:35;;;;;;;19.77;17.80;;;;;;;19.05;91.11;100567.25;5037432;28;20198;-73
2021/07/25 03:49:00;;;;;;;19.23;17.37;;;;;;;19.01;91.14;100555.28;5036775;28;20664;-73
2021/07/25 03:51:26;;;;;;;18.83;16.90;;;;;;;19.00;90.51;100538.13;5037003;28;20466;-73
2021/07/25 03:53:51;;;;;;;20.17;17.23;;;;;;;19.03;90.68;100555.81;5037926;28;20215;-73
2021/07/25 03:56:20;;;;;;;19.53;17.50;;;;;;;18.77;90.74;100517.56;5051586;28;20184;-72
2021/07/25 03:58:45;;;;;;;20.07;18.03;;;;;;;19.04;90.56;100552.84;5034837;28;20227;-72
2021/07/25 04:01:11;;;;;;;17.90;15.93;;;;;;;18.98;90.53;100540.31;5034619;28;21225;-73
2021/07/25 04:03:37;;;;;;;20.90;18.70;;;;;;;19.10;90.06;100559.13;5033433;28;20183;-73
2021/07/25 04:06:02;;;;;;;20.90;18.87;;;;;;;18.41;90.94;100475.75;5036205;28;20202;-73
2021/07/25 04:08:28;;;;;;;21.67;19.37;;;;;;;19.02;90.67;100549.56;5038328;28;20447;-73
2021/07/25 04:10:53;;;;;;;22.27;19.90;;;;;;;18.85;90.95;100547.00;5035685;28;20758;-73
2021/07/25 04:13:18;;;;;;;27.90;25.17;;;;;;;18.80;91.48;100551.56;5032279;28;20199;-73
2021/07/25 04:15:45;;;;;;;23.07;20.83;;;;;;;18.49;91.01;100484.22;5031532;28;20270;-72
2021/07/25 04:18:11;;;;;;;22.70;20.47;;;;;;;19.08;90.21;100548.50;5030752;28;20208;-72
2021/07/25 04:20:36;;;;;;;25.13;22.50;;;;;;;18.93;90.40;100551.94;5034316;28;20446;-72
2021/07/25 04:23:03;;;;;;;22.50;20.17;;;;;;;18.30;91.03;100459.34;5036833;28;20644;-73
2021/07/25 04:25:29;;;;;;;26.97;23.37;;;;;;;17.44;91.08;100328.34;5040679;28;20198;-73
2021/07/25 04:27:57;;;;;;;27.60;22.93;;;;;;;18.57;92.50;100561.66;5036587;28;20891;-72
2021/07/25 04:30:24;;;;;;;471.83;431.20;;;;;;;17.93;92.21;100500.00;5032468;28;20545;-72
2021/07/25 04:32:50;;;;;;;24.37;22.07;;;;;;;18.06;89.95;100518.59;5034538;28;20469;-73
2021/07/25 04:35:17;;;;;;;418.70;382.10;;;;;;;18.16;90.61;100580.28;5035641;28;20447;-73
2021/07/25 04:37:48;;;;;;;388.10;353.73;;;;;;;17.17;91.04;100478.22;5036004;28;20211;-72
2021/07/25 04:40:15;;;;;;;6.73;5.07;;;;;;;18.01;90.25;100572.00;5035816;28;20451;-72
2021/07/25 04:42:45;;;;;;;185.47;168.93;;;;;;;17.42;89.92;100504.00;5032791;28;20477;-72
2021/07/25 04:45:15;;;;;;;542.50;481.43;;;;;;;17.67;89.55;100555.81;5031939;28;20468;-72
2021/07/25 04:47:46;;;;;;;484.23;438.07;;;;;;;17.77;90.27;100577.66;5035094;28;20439;-72
2021/07/25 04:50:16;;;;;;;621.00;569.43;;;;;;;17.57;91.03;100559.25;5034043;28;20810;-72
2021/07/25 04:52:42;;;;;;;484.67;440.03;;;;;;;17.90;90.36;100581.09;5031847;28;21071;-72
2021/07/25 04:55:11;;;;;;;251.87;227.17;;;;;;;17.67;90.72;100582.13;5032911;28;20443;-72
2021/07/25 04:57:42;;;;;;;37.67;34.13;;;;;;;17.58;91.44;100589.88;5033850;28;20469;-72
2021/07/25 05:00:13;;;;;;;248.60;226.37;;;;;;;17.71;90.58;100591.41;5031945;28;20434;-72
2021/07/25 05:02:40;;;;;;;93.77;84.87;;;;;;;17.67;90.30;100590.28;5037158;28;20552;-72
2021/07/25 05:05:06;;;;;;;313.03;278.57;;;;;;;17.33;91.48;100574.94;5034585;28;20441;-73
2021/07/25 05:07:37;;;;;;;733.73;659.17;;;;;;;17.54;91.06;100583.34;5033696;28;20807;-73
2021/07/25 05:10:03;;;;;;;34.07;30.97;;;;;;;17.42;91.04;100574.50;5035887;28;20887;-73
2021/07/25 05:12:33;;;;;;;426.40;384.80;;;;;;;17.53;90.83;100597.94;5038915;28;20463;-73
2021/07/25 05:15:21;;;;;;;84.27;77.47;;;;;;;17.55;90.72;100601.22;5033557;28;20438;-73
2021/07/25 05:17:51;;;;;;;392.37;359.07;;;;;;;17.29;90.95;100584.63;5038808;28;20477;-73
2021/07/25 05:20:18;;;;;;;638.60;573.53;;;;;;;17.37;91.39;100616.72;5036571;28;20469;-73
2021/07/25 05:22:53;;;;;;;538.83;485.20;;;;;;;17.40;91.36;100610.78;5037563;28;20466;-73
2021/07/25 05:25:22;;;;;;;21.80;19.70;;;;;;;17.39;91.08;100592.91;5039523;28;20449;-72
2021/07/25 05:27:49;;;;;;;94.43;85.03;;;;;;;17.49;91.83;100621.22;5037539;28;20495;-73
2021/07/25 05:30:23;;;;;;;122.93;111.13;;;;;;;17.33;91.24;100595.81;5039726;28;20450;-73
2021/07/25 05:32:49;;;;;;;25.67;23.20;;;;;;;17.28;90.91;100572.13;5034882;28;20556;-73
2021/07/25 05:35:16;;;;;;;246.23;219.73;;;;;;;17.57;91.00;100601.81;5032897;28;20450;-73
2021/07/25 05:37:43;;;;;;;64.17;57.57;;;;;;;17.04;91.34;100551.72;5033649;28;20971;-72
2021/07/25 05:40:09;;;;;;;365.17;327.33;;;;;;;17.11;91.67;100549.66;5036748;28;20442;-72
2021/07/25 05:42:35;;;;;;;613.97;549.97;;;;;;;17.28;91.27;100569.44;5032384;28;20520;-72
2021/07/25 05:45:01;;;;;;;526.27;472.37;;;;;;;17.58;91.99;100611.59;5031317;28;20446;-72
2021/07/25 05:47:26;;;;;;;448.13;402.93;;;;;;;17.66;91.52;100613.88;5032640;28;20198;-72
2021/07/25 05:49:51;;;;;;;480.23;429.00;;;;;;;17.76;90.99;100608.59;5033782;28;20184;-72
2021/07/25 05:52:17;;;;;;;664.13;585.43;;;;;;;17.54;90.52;100561.63;5036138;28;20211;-72
2021/07/25 05:54:42;;;;;;;282.20;251.83;;;;;;;17.87;90.59;100616.88;5035429;28;20188;-72
2021/07/25 05:57:08;;;;;;;153.43;134.93;;;;;;;17.49;91.17;100565.09;5037679;28;20266;-72
2021/07/25 05:59:34;;;;;;;764.87;682.20;;;;;;;17.71;91.09;100583.28;5032218;28;20226;-72
2021/07/25 06:02:03;;;;;;;1001.80;880.10;;;;;;;17.83;91.00;100603.81;5030976;28;20469;-72
2021/07/25 06:04:29;;;;;;;220.43;188.03;;;;;;;17.80;91.34;100587.22;5035102;28;20192;-72
2021/07/25 06:06:56;;;;;;;694.00;619.47;;;;;;;17.96;90.40;100591.75;5036076;28;20953;-72
2021/07/25 06:09:21;;;;;;;443.87;396.03;;;;;;;18.13;90.23;100612.56;5034308;28;20437;-72
2021/07/25 06:11:47;;;;;;;940.30;841.47;;;;;;;18.00;90.46;100598.31;5034365;28;20478;-72
2021/07/25 06:14:12;;;;;;;742.37;652.93;;;;;;;18.14;90.37;100625.88;5036330;28;20181;-73
2021/07/25 06:16:38;;;;;;;767.60;411.47;;;;;;;17.84;90.13;100564.75;5032945;28;20273;-73
2021/07/25 06:19:03;;;;;;;455.27;405.43;;;;;;;17.95;90.07;100568.41;5029433;28;20207;-73
2021/07/25 06:21:29;;;;;;;788.80;706.90;;;;;;;18.29;90.02;100609.75;5037757;28;20223;-73
2021/07/25 06:23:58;;;;;;;596.87;534.87;;;;;;;18.15;90.42;100603.09;5033930;28;20227;-73
2021/07/25 06:26:24;;;;;;;944.80;648.67;;;;;;;18.29;90.19;100630.66;5033795;28;20683;-72
2021/07/25 06:28:50;;;;;;;417.80;374.63;;;;;;;18.25;90.56;100622.22;5032409;28;20443;-72
2021/07/25 06:31:16;;;;;;;232.13;195.00;;;;;;;17.92;90.76;100558.06;5031747;28;20623;-72
2021/07/25 06:33:41;;;;;;;664.47;594.07;;;;;;;18.22;90.17;100586.59;5033615;28;21022;-73
2021/07/25 06:36:11;;;;;;;1464.60;992.63;;;;;;;17.88;89.35;100556.94;5035276;28;20438;-72
2021/07/25 06:38:41;;;;;;;1212.87;955.23;;;;;;;18.38;89.48;100617.44;5032969;28;20708;-72
2021/07/25 06:41:07;;;;;;;1120.70;813.77;;;;;;;18.13;89.14;100580.81;5032280;28;20549;-72
2021/07/25 06:43:33;;;;;;;701.70;616.47;;;;;;;18.34;89.05;100600.00;5037750;28;20446;-72
2021/07/25 06:45:58;;;;;;;716.60;575.83;;;;;;;18.50;88.68;100613.50;5032523;28;20475;-72
2021/07/25 06:48:30;;;;;;;1126.87;849.60;;;;;;;18.45;88.80;100604.47;5029690;28;20534;-73
2021/07/25 06:50:58;;;;;;;996.70;862.07;;;;;;;18.57;88.00;100613.28;5039422;28;20250;-73
2021/07/25 06:53:25;;;;;;;409.87;333.87;;;;;;;18.73;88.07;100622.41;5031936;28;20535;-73
2021/07/25 06:55:52;;;;;;;680.57;570.90;;;;;;;18.55;87.46;100587.47;5033323;28;20453;-72
2021/07/25 06:58:18;;;;;;;1010.57;890.77;;;;;;;18.69;86.89;100602.28;5035378;28;20516;-72
2021/07/25 07:00:44;;;;;;;623.13;558.03;;;;;;;18.83;87.49;100638.00;5033989;28;20438;-72
2021/07/25 07:03:09;;;;;;;896.33;797.90;;;;;;;18.72;87.11;100632.44;5031229;28;20234;-72
2021/07/25 07:05:35;;;;;;;848.13;757.60;;;;;;;18.68;87.16;100628.59;5036196;28;20429;-73
2021/07/25 07:08:03;;;;;;;586.57;527.20;;;;;;;18.81;87.31;100646.41;5033282;28;20587;-74
2021/07/25 07:10:34;;;;;;;551.77;493.67;;;;;;;18.84;87.07;100653.25;5032592;28;20211;-73
2021/07/25 07:13:02;;;;;;;1015.47;903.03;;;;;;;18.85;87.57;100654.88;5034741;28;20448;-73
2021/07/25 07:15:29;;;;;;;335.43;302.63;;;;;;;18.77;86.54;100609.97;5033419;28;20447;-73
2021/07/25 07:17:56;;;;;;;761.47;693.07;;;;;;;18.98;86.05;100659.88;5032327;28;20957;-73
2021/07/25 07:20:22;;;;;;;1084.23;974.90;;;;;;;18.97;85.60;100641.91;5036485;28;20495;-73
2021/07/25 07:22:56;;;;;;;77.23;69.03;;;;;;;19.11;85.51;100656.72;5036603;28;20488;-73
2021/07/25 07:25:23;;;;;;;75.50;67.23;;;;;;;19.16;85.37;100659.47;5039559;28;20251;-72
2021/07/25 07:27:49;;;;;;;467.00;419.50;;;;;;;18.89;85.04;100626.94;5037660;28;20441;-71
2021/07/25 07:30:15;;;;;;;18.83;16.87;;;;;;;19.21;85.37;100664.16;5035891;28;20797;-72
2021/07/25 07:32:40;;;;;;;412.17;341.43;;;;;;;19.14;84.83;100648.03;5036149;28;20200;-72
2021/07/25 07:35:06;;;;;;;311.63;281.70;;;;;;;19.24;84.48;100665.50;5035863;28;20188;-72
2021/07/25 07:37:31;;;;;;;454.57;407.30;;;;;;;18.95;83.80;100616.91;5036259;28;20191;-72
2021/07/25 07:39:56;;;;;;;320.00;289.70;;;;;;;19.04;84.46;100628.13;5037144;28;20554;-71
2021/07/25 07:42:22;;;;;;;578.67;520.93;;;;;;;19.29;83.96;100690.03;5016102;22;20232;-71
2021/07/25 07:44:47;;;;;;;82.63;75.00;;;;;;;19.32;84.30;100693.03;5030310;28;20203;-72
2021/07/25 07:47:13;;;;;;;781.33;697.20;;;;;;;19.06;83.87;100656.66;5031086;28;20192;-71
2021/07/25 07:49:39;;;;;;;620.90;562.93;;;;;;;19.11;83.14;100628.72;5027474;28;20271;-71
2021/07/25 07:52:05;;;;;;;915.37;824.43;;;;;;;19.50;82.36;100664.63;5022204;28;20297;-70
2021/07/25 07:54:31;;;;;;;703.60;630.27;;;;;;;19.54;82.61;100678.50;5023102;28;20189;-69
2021/07/25 07:56:56;;;;;;;584.10;522.63;;;;;;;19.76;82.12;100705.59;5026907;28;20954;-69
2021/07/25 07:59:22;;;;;;;9.67;7.97;;;;;;;19.82;83.06;100690.97;5029799;28;20661;-71
2021/07/25 08:01:47;;;;;;;8.97;8.07;;;;;;;19.89;82.68;100710.59;5007799;28;20742;-70
2021/07/25 08:04:13;;;;;;;450.77;407.23;;;;;;;19.78;82.67;100720.59;5021706;28;20214;-69
2021/07/25 08:06:38;;;;;;;119.63;108.77;;;;;;;19.46;82.88;100689.88;5025930;28;20193;-70
2021/07/25 08:09:03;;;;;;;424.27;386.20;;;;;;;19.31;83.36;100683.25;5027421;28;21154;-70
2021/07/25 08:11:29;;;;;;;578.57;356.40;;;;;;;19.38;82.91;100723.81;5028947;28;20262;-69
2021/07/25 08:13:54;;;;;;;586.53;529.87;;;;;;;19.43;82.75;100730.09;5022354;28;20185;-70
2021/07/25 08:16:20;;;;;;;73.43;65.37;;;;;;;19.45;82.30;100732.56;5024975;28;20188;-70
2021/07/25 08:18:45;;;;;;;16.30;14.17;;;;;;;19.06;83.06;100683.84;5024211;28;20349;-68
2021/07/25 08:21:10;;;;;;;284.30;256.10;;;;;;;19.52;82.79;100738.59;5024787;28;20298;-68
2021/07/25 08:23:36;;;;;;;16.43;14.67;;;;;;;19.43;83.46;100738.25;5025089;28;20180;-69
2021/07/25 08:26:01;;;;;;;473.30;430.97;;;;;;;19.51;83.18;100744.31;5026801;28;20185;-69
2021/07/25 08:28:28;;;;;;;113.77;101.97;;;;;;;19.58;83.09;100748.44;5024275;28;20204;-69
2021/07/25 08:30:54;;;;;;;423.63;380.63;;;;;;;19.45;81.73;100732.56;5021470;28;20213;-70
2021/07/25 08:33:20;;;;;;;33.57;29.97;;;;;;;19.69;81.38;100752.09;5018784;28;20943;-70
2021/07/25 08:35:45;;;;;;;399.07;328.67;;;;;;;19.72;81.12;100753.47;5023408;28;20462;-70
2021/07/25 08:38:10;;;;;;;323.20;290.87;;;;;;;19.83;80.99;100769.59;5024053;28;20350;-69
2021/07/25 08:40:36;;;;;;;9.53;8.40;;;;;;;19.95;80.68;100761.25;5016503;28;20279;-69
2021/07/25 08:43:04;;;;;;;161.40;146.30;;;;;;;20.00;80.36;100765.91;5017671;28;20283;-70
2021/07/25 08:45:31;;;;;;;158.73;144.43;;;;;;;19.98;80.21;100778.97;5026011;28;20192;-70
2021/07/25 08:48:12;;;;;;;11.47;10.37;;;;;;;20.04;80.72;100776.00;5023884;28;20448;-70
2021/07/25 08:50:49;;;;;;;9.57;7.53;;;;;;;20.06;80.32;100770.28;5025278;28;20462;-70
2021/07/25 08:53:18;;;;;;;406.40;369.40;;;;;;;20.01;81.29;100783.88;5020138;28;20961;-70
2021/07/25 08:55:45;;;;;;;9.53;8.43;;;;;;;20.02;81.26;100786.34;5027963;28;20449;-70
2021/07/25 08:58:12;;;;;;;76.77;69.07;;;;;;;19.88;81.35;100790.59;5024690;28;20475;-70
2021/07/25 09:00:38;;;;;;;13.67;12.47;;;;;;;20.01;81.33;100794.75;5020559;28;20450;-70
2021/07/25 09:03:08;;;;;;;22.90;20.77;;;;;;;19.96;80.73;100797.44;5026305;28;20465;-70
2021/07/25 09:05:35;;;;;;;394.60;360.73;;;;;;;19.87;80.34;100767.16;5028766;28;20443;-70
2021/07/25 09:08:02;;;;;;;67.67;60.70;;;;;;;20.12;79.84;100787.47;5026548;28;20859;-70
2021/07/25 09:10:28;;;;;;;11.20;10.20;;;;;;;20.20;79.88;100803.34;5022838;28;21064;-71
2021/07/25 09:12:55;;;;;;;92.07;82.63;;;;;;;20.08;79.93;100798.91;5024223;28;20499;-70
2021/07/25 09:15:31;;;;;;;14.47;11.47;;;;;;;20.17;80.22;100809.31;5022524;28;20181;-70
2021/07/25 09:17:59;;;;;;;147.77;132.60;;;;;;;20.27;79.24;100806.63;5026271;28;20492;-70
2021/07/25 09:20:28;;;;;;;249.70;145.27;;;;;;;20.24;77.38;100810.69;5025200;28;20447;-71
2021/07/25 09:23:00;;;;;;;94.67;85.77;;;;;;;20.22;76.95;100787.53;5020891;28;20467;-70
2021/07/25 09:25:25;;;;;;;59.30;53.80;;;;;;;20.34;77.35;100815.41;5025522;28;20460;-70
2021/07/25 09:27:57;;;;;;;9.40;8.27;;;;;;;20.28;76.38;100809.09;5021966;28;20541;-69
2021/07/25 09:30:28;;;;;;;8.50;7.80;;;;;;;20.44;76.55;100811.88;5026945;28;20275;-71
2021/07/25 09:32:53;;;;;;;12.93;11.30;;;;;;;20.71;78.80;100809.88;5019992;28;20487;-68
2021/07/25 09:35:39;;;;;;;379.20;199.83;;;;;;;20.53;78.23;100818.50;5016595;28;20454;-70
2021/07/25 09:38:04;;;;;;;612.10;558.17;;;;;;;20.57;78.93;100819.63;5022425;28;20287;-69
2021/07/25 09:40:33;;;;;;;235.17;212.03;;;;;;;20.53;79.04;100807.59;5023749;28;20537;-71
2021/07/25 09:43:12;;;;;;;19.03;17.03;;;;;;;20.69;78.80;100816.66;5018235;28;20200;-69
2021/07/25 09:45:47;;;;;;;168.87;154.03;;;;;;;20.73;78.78;100815.84;5025558;28;20449;-70
2021/07/25 09:48:13;;;;;;;15.83;14.23;;;;;;;21.09;77.49;100817.88;5029932;28;20450;-70
2021/07/25 09:50:38;;;;;;;163.53;148.90;;;;;;;21.25;76.99;100807.81;5022594;28;20537;-68
2021/07/25 09:53:04;;;;;;;14.27;12.67;;;;;;;21.59;75.65;100803.50;5020284;28;20504;-70
2021/07/25 09:55:30;;;;;;;12.57;11.30;;;;;;;21.47;72.75;100804.88;5006436;28;20196;-71
2021/07/25 09:57:56;;;;;;;58.60;52.97;;;;;;;21.48;71.36;100822.88;5020619;28;20207;-70
2021/07/25 10:00:21;;;;;;;12.87;11.53;;;;;;;21.59;72.50;100816.34;5027907;28;20439;-70
2021/07/25 10:02:47;;;;;;;171.53;154.13;;;;;;;21.67;70.93;100815.78;5010949;28;20243;-71
2021/07/25 10:05:19;;;;;;;11.33;10.00;;;;;;;21.89;73.19;100826.41;5026813;28;20266;-70
2021/07/25 10:07:48;;;;;;;245.87;188.33;;;;;;;21.53;72.44;100831.88;5027843;28;21153;-71
2021/07/25 10:10:18;;;;;;;16.90;15.17;;;;;;;21.47;73.60;100834.88;5029611;28;20449;-70
2021/07/25 10:12:45;;;;;;;21.03;18.73;;;;;;;21.33;73.65;100804.56;5028163;28;20447;-70
2021/07/25 10:15:20;;;;;;;59.33;53.33;;;;;;;21.45;73.60;100813.31;5029227;28;20423;-70
2021/07/25 10:17:47;;;;;;;299.97;270.93;;;;;;;21.46;72.75;100831.31;5028596;28;20493;-70
2021/07/25 10:20:16;;;;;;;145.03;129.50;;;;;;;21.30;72.95;100775.91;5028144;28;20423;-70
2021/07/25 10:22:48;;;;;;;59.97;54.03;;;;;;;22.04;72.48;100825.56;5028695;28;20447;-70
2021/07/25 10:25:15;;;;;;;19.40;17.47;;;;;;;22.07;71.49;100820.41;5029926;28;20977;-70
2021/07/25 10:27:44;;;;;;;112.40;101.90;;;;;;;21.78;71.41;100827.50;5029593;28;20423;-70
2021/07/25 10:30:12;;;;;;;13.70;12.40;;;;;;;22.24;70.60;100831.00;5029635;28;20423;-70
2021/07/25 10:32:42;;;;;;;14.00;11.67;;;;;;;22.21;69.71;100823.38;5029435;28;20781;-70
2021/07/25 10:35:10;;;;;;;94.57;85.00;;;;;;;22.11;69.11;100829.66;5029595;28;20419;-70
2021/07/25 10:37:40;;;;;;;13.80;12.07;;;;;;;22.20;69.08;100846.34;5028399;28;20462;-70
2021/07/25 10:40:07;;;;;;;16.23;12.00;;;;;;;22.21;68.81;100836.22;5029494;28;20493;-70
2021/07/25 10:42:37;;;;;;;12.47;11.30;;;;;;;22.34;68.97;100833.75;5029112;28;20463;-70
2021/07/25 10:45:03;;;;;;;40.17;36.27;;;;;;;22.38;70.14;100834.00;5029011;28;20485;-70
2021/07/25 10:47:31;;;;;;;38.57;34.97;;;;;;;22.44;69.83;100799.28;5023110;28;20561;-70
2021/07/25 10:50:12;;;;;;;41.90;30.27;;;;;;;22.47;68.43;100817.84;5025652;28;20497;-71
2021/07/25 10:52:54;;;;;;;58.83;53.20;;;;;;;22.47;68.51;100837.78;5020125;28;20837;-70
2021/07/25 10:55:35;;;;;;;15.77;14.13;;;;;;;22.83;68.30;100832.19;5026589;28;20525;-70
2021/07/25 10:58:04;;;;;;;33.10;29.70;;;;;;;23.14;68.21;100835.63;5024060;28;20487;-68
2021/07/25 11:00:40;;;;;;;14.90;13.40;;;;;;;23.14;67.68;100837.50;5029122;28;20435;-68
2021/07/25 11:03:06;;;;;;;19.17;16.57;;;;;;;23.12;67.93;100829.59;5025266;28;20461;-70
2021/07/25 11:05:34;;;;;;;17.20;15.47;;;;;;;23.23;68.30;100835.84;5027578;28;20805;-71